createdAt,value
2023-03-17T00:00:01.177Z,2514.55
2023-03-17T00:05:01.183Z,7093.558
2023-03-17T00:10:01.284Z,5918.33
2023-03-17T00:15:01.212Z,4950.155
2023-03-17T00:20:01.156Z,4972.261
2023-03-17T00:25:01.194Z,4979.437
2023-03-17T00:30:01.152Z,5149.551
2023-03-17T00:35:01.218Z,5217.557
2023-03-17T00:40:01.293Z,5150.549
2023-03-17T00:45:01.319Z,5071.576
2023-03-17T00:50:01.409Z,4834.134
2023-03-17T00:55:01.228Z,4835.4710000000005
2023-03-17T01:00:01.226Z,4905.719
2023-03-17T01:05:06.132Z,5883.938
2023-03-17T01:10:01.256Z,6976.042
2023-03-17T01:15:01.261Z,7060.629
2023-03-17T01:20:01.223Z,7257.917
2023-03-17T01:25:01.333Z,7202.564
2023-03-17T01:30:01.252Z,7474.619000000001
2023-03-17T01:35:01.342Z,5809.404
2023-03-17T01:40:01.295Z,4838.544
2023-03-17T01:45:01.272Z,4851.8730000000005
2023-03-17T01:50:01.286Z,4938.368
2023-03-17T01:55:01.258Z,4926.553
2023-03-17T02:00:01.329Z,5230.953
2023-03-17T02:05:01.375Z,5159.218
2023-03-17T02:10:01.364Z,5117.212
2023-03-17T02:15:01.359Z,4965.2300000000005
2023-03-17T02:20:01.376Z,4813.4710000000005
2023-03-17T02:25:01.533Z,4815.828
2023-03-17T02:30:01.423Z,6810.49
2023-03-17T02:35:01.504Z,6961.474
2023-03-17T02:40:01.410Z,7021.594
2023-03-17T02:45:01.479Z,7249.415
2023-03-17T02:50:01.456Z,5188.608
2023-03-17T02:55:01.504Z,5112.828
2023-03-17T03:00:01.489Z,4886.594
2023-03-17T03:05:01.303Z,4794.28
2023-03-17T03:10:01.411Z,4788.3460000000005
2023-03-17T03:15:01.306Z,4795.634
2023-03-17T03:20:01.343Z,4866.255
2023-03-17T03:25:01.297Z,4986.171
2023-03-17T03:30:01.323Z,5276.85
2023-03-17T03:35:01.352Z,5217.813
2023-03-17T03:40:01.396Z,6403.229
2023-03-17T03:45:01.429Z,6902.378
2023-03-17T03:50:01.468Z,6849.159000000001
2023-03-17T03:55:01.414Z,6665.184
2023-03-17T04:00:01.381Z,6977.773
2023-03-17T04:05:01.468Z,7491.5
2023-03-17T04:10:01.388Z,5333.071
2023-03-17T04:15:01.405Z,5275.327
2023-03-17T04:20:01.394Z,5128.743
2023-03-17T04:25:01.388Z,4653.777
2023-03-17T04:30:01.389Z,3872.948
2023-03-17T04:35:01.407Z,3493.759
2023-03-17T04:40:01.398Z,3165.686
2023-03-17T04:45:01.445Z,1349.376
2023-03-17T04:50:01.499Z,166.434
2023-03-17T04:55:01.426Z,455.66200000000003
2023-03-17T05:00:01.480Z,652.009
2023-03-17T05:05:01.458Z,2298.611
2023-03-17T05:10:01.409Z,2921.859
2023-03-17T05:15:01.434Z,2603.214
2023-03-17T05:20:01.430Z,2229.1620000000003
2023-03-17T05:25:01.447Z,341.56100000000004
2023-03-17T05:30:01.429Z,163.514
2023-03-17T05:35:01.527Z,189.89000000000001
2023-03-17T05:40:01.639Z,529.09
2023-03-17T05:45:01.466Z,745.686
2023-03-17T05:50:01.415Z,660.843
2023-03-17T05:55:01.449Z,549.701
2023-03-17T06:00:01.482Z,236.418
2023-03-17T06:05:01.480Z,1210.586
2023-03-17T06:10:01.509Z,399.236
2023-03-17T06:15:01.607Z,2575.064
2023-03-17T06:20:01.473Z,2780.3160000000003
2023-03-17T06:25:01.504Z,3034.009
2023-03-17T06:30:01.593Z,2489.013
2023-03-17T06:35:01.570Z,2604.522
2023-03-17T06:40:01.585Z,2508.841
2023-03-17T06:45:01.636Z,2236.3940000000002
2023-03-17T06:50:01.543Z,2366
2023-03-17T06:55:01.535Z,2732.952
2023-03-17T07:00:01.520Z,808.831
2023-03-17T07:05:01.723Z,163.788
2023-03-17T07:10:01.523Z,478.963
2023-03-17T07:15:01.559Z,613.694
2023-03-17T07:20:01.552Z,593.378
2023-03-17T07:25:01.571Z,430.336
2023-03-17T07:30:01.524Z,216.485
2023-03-17T07:35:01.573Z,163.554
2023-03-17T07:40:01.667Z,187.615
2023-03-17T07:45:01.526Z,187.439
2023-03-17T07:50:01.592Z,203.871
2023-03-17T07:55:01.784Z,547.475
2023-03-17T08:00:01.766Z,556.966
2023-03-17T08:05:01.585Z,1224.69
2023-03-17T08:10:01.727Z,2375.938
2023-03-17T08:15:01.774Z,2230.971
2023-03-17T08:20:01.778Z,2185.794
2023-03-17T08:25:01.717Z,2447.6620000000003
2023-03-17T08:30:01.759Z,2325.032
2023-03-17T08:35:01.784Z,2902.556
2023-03-17T08:40:01.786Z,545.109
2023-03-17T08:45:01.741Z,495.086
2023-03-17T08:50:01.765Z,611.582
2023-03-17T08:55:01.778Z,315.922
2023-03-17T09:00:01.772Z,303.314
2023-03-17T09:05:01.786Z,234.269
2023-03-17T09:10:01.781Z,246.23000000000002
2023-03-17T09:15:01.725Z,281.6
2023-03-17T09:20:01.768Z,1511.49
2023-03-17T09:25:01.885Z,702.159
2023-03-17T09:30:01.795Z,641.761
2023-03-17T09:35:01.769Z,729.9540000000001
2023-03-17T09:40:01.773Z,436.64
2023-03-17T09:45:01.716Z,405.856
2023-03-17T09:50:01.718Z,352.795
2023-03-17T09:55:01.673Z,291.474
2023-03-17T10:00:01.693Z,289.616
2023-03-17T10:05:01.770Z,492.592
2023-03-17T10:10:01.721Z,667.364
2023-03-17T10:15:01.662Z,610.261
2023-03-17T10:20:01.767Z,647.802
2023-03-17T10:25:03.447Z,462.874
2023-03-17T10:30:01.829Z,466.843
2023-03-17T10:35:01.776Z,459.077
2023-03-17T10:40:01.701Z,364.095
2023-03-17T10:45:01.660Z,363.86
2023-03-17T10:50:01.684Z,631.578
2023-03-17T10:55:01.778Z,723.744
2023-03-17T11:00:01.776Z,650.682
2023-03-17T11:05:01.811Z,577.922
2023-03-17T11:10:01.782Z,444.716
2023-03-17T11:15:01.814Z,1077.627
2023-03-17T11:20:01.779Z,2781.728
2023-03-17T11:25:01.693Z,2507.398
2023-03-17T11:30:01.721Z,2365.442
2023-03-17T11:35:01.795Z,2721.645
2023-03-17T11:40:01.840Z,2754.924
2023-03-17T11:45:01.818Z,2741.802
2023-03-17T11:50:01.798Z,2985.803
2023-03-17T11:55:01.840Z,2283.6440000000002
2023-03-17T12:00:01.844Z,357.109
2023-03-17T12:05:01.837Z,390.217
2023-03-17T12:10:01.795Z,346.234
2023-03-17T12:15:01.778Z,290.07
2023-03-17T12:20:01.786Z,645.3050000000001
2023-03-17T12:25:01.827Z,659.2040000000001
2023-03-17T12:30:01.818Z,602.609
2023-03-17T12:35:01.835Z,437.325
2023-03-17T12:40:02.224Z,282.85
2023-03-17T12:45:01.804Z,419.765
2023-03-17T12:50:01.944Z,414.547
2023-03-17T12:55:01.861Z,413.84700000000004
2023-03-17T13:00:01.824Z,350.276
2023-03-17T13:05:01.825Z,674.712
2023-03-17T13:10:02.060Z,634.803
2023-03-17T13:15:01.916Z,622.941
2023-03-17T13:20:01.835Z,407.22200000000004
2023-03-17T13:25:01.802Z,284.194
2023-03-17T13:30:01.843Z,344.427
2023-03-17T13:35:01.953Z,338.773
2023-03-17T13:40:01.872Z,335.968
2023-03-17T13:45:01.835Z,372.427
2023-03-17T13:50:01.884Z,646.57
2023-03-17T13:55:01.894Z,611.811
2023-03-17T14:00:01.851Z,618.701
2023-03-17T14:05:01.946Z,335.589
2023-03-17T14:10:01.930Z,250.115
2023-03-17T14:15:01.969Z,274.709
2023-03-17T14:20:01.930Z,368.855
2023-03-17T14:25:01.906Z,362.25600000000003
2023-03-17T14:30:01.852Z,446.055
2023-03-17T14:35:01.952Z,595.391
2023-03-17T14:40:01.927Z,580.705
2023-03-17T14:45:01.991Z,623.588
2023-03-17T14:50:01.950Z,294.695
2023-03-17T14:55:01.911Z,257.579
2023-03-17T15:00:01.913Z,1197.011
2023-03-17T15:05:01.933Z,2202.456
2023-03-17T15:10:01.990Z,2376.417
2023-03-17T15:15:01.889Z,2575.852
2023-03-17T15:20:01.986Z,3270.436
2023-03-17T15:25:01.896Z,1790.335
2023-03-17T15:30:01.975Z,724.409
2023-03-17T15:35:02.007Z,699.832
2023-03-17T15:40:02.023Z,2333.361
2023-03-17T15:45:02.000Z,2331.293
2023-03-17T15:50:01.936Z,1162.583
2023-03-17T15:55:02.131Z,1397.352
2023-03-17T16:00:01.941Z,2232.925
2023-03-17T16:05:02.040Z,2241.727
2023-03-17T16:10:02.004Z,4182.425
2023-03-17T16:15:05.485Z,4364.434
2023-03-17T16:20:01.932Z,3062.987
2023-03-17T16:25:02.012Z,2828.005
2023-03-17T16:30:02.237Z,365.773
2023-03-17T16:35:02.035Z,368.148
2023-03-17T16:40:02.144Z,432.53000000000003
2023-03-17T16:45:02.044Z,688.003
2023-03-17T16:50:02.088Z,2415.165
2023-03-17T16:55:02.057Z,1512.059
2023-03-17T17:00:02.077Z,1129.08
2023-03-17T17:05:02.013Z,1755.461
2023-03-17T17:10:02.123Z,2736.77
2023-03-17T17:15:02.015Z,2783.844
2023-03-17T17:20:02.216Z,2941.5370000000003
2023-03-17T17:25:02.032Z,3300.522
2023-03-17T17:30:02.037Z,2114.465
2023-03-17T17:35:02.054Z,1261.9370000000001
2023-03-17T17:40:02.032Z,1028.663
2023-03-17T17:45:02.225Z,1052.034
2023-03-17T17:50:02.333Z,588.9590000000001
2023-03-17T17:55:02.254Z,565.871
2023-03-17T18:00:02.242Z,490.182
2023-03-17T18:05:02.369Z,833.244
2023-03-17T18:10:03.762Z,640.144
2023-03-17T18:15:02.217Z,807.554
2023-03-17T18:20:02.144Z,987.465
2023-03-17T18:25:02.109Z,1737.885
2023-03-17T18:30:02.105Z,1593.298
2023-03-17T18:35:02.226Z,696.36
2023-03-17T18:40:13.750Z,615.407
2023-03-17T18:45:02.137Z,534.192
2023-03-17T18:50:02.127Z,598.7330000000001
2023-03-17T18:55:02.094Z,1621.973
2023-03-17T19:00:02.101Z,2779.371
2023-03-17T19:05:02.247Z,2854.0280000000002
2023-03-17T19:10:04.163Z,3082.77
2023-03-17T19:15:02.120Z,3357.2000000000003
2023-03-17T19:20:02.126Z,3291.847
2023-03-17T19:25:02.210Z,905.442
2023-03-17T19:30:02.211Z,574.797
2023-03-17T19:35:02.215Z,574.981
2023-03-17T19:40:02.175Z,550.448
2023-03-17T19:45:02.191Z,726.303
2023-03-17T19:50:02.129Z,1019.327
2023-03-17T19:55:02.154Z,1033.401
2023-03-17T20:00:02.210Z,1014.152
2023-03-17T20:05:02.165Z,696.344
2023-03-17T20:10:02.290Z,509.204
2023-03-17T20:15:02.173Z,399.051
2023-03-17T20:20:02.440Z,599.793
2023-03-17T20:25:02.420Z,563.234
2023-03-17T20:30:02.359Z,668.538
2023-03-17T20:35:02.391Z,1025.3410000000001
2023-03-17T20:40:02.445Z,2015.819
2023-03-17T20:45:02.383Z,3337.04
2023-03-17T20:50:02.338Z,1712.807
2023-03-17T20:55:02.455Z,620.91
2023-03-17T21:00:02.419Z,2171.997
2023-03-17T21:05:02.337Z,2664.669
2023-03-17T21:10:04.072Z,2623.936
2023-03-17T21:15:02.294Z,3376.768
2023-03-17T21:20:02.264Z,3152.324
2023-03-17T21:25:02.269Z,1053.31
2023-03-17T21:30:02.248Z,954.582
2023-03-17T21:35:02.412Z,781.049
2023-03-17T21:40:02.286Z,475.467
2023-03-17T21:45:02.234Z,566.4350000000001
2023-03-17T21:50:02.295Z,481.134
2023-03-17T21:55:02.313Z,586.236
2023-03-17T22:00:02.284Z,581.5260000000001
2023-03-17T22:05:02.363Z,967.5600000000001
2023-03-17T22:10:03.810Z,917.232
2023-03-17T22:15:02.275Z,1030.742
2023-03-17T22:20:02.348Z,742.242
2023-03-17T22:25:02.345Z,596.575
2023-03-17T22:30:02.396Z,463.044
2023-03-17T22:35:02.280Z,1790.132
2023-03-17T22:40:02.417Z,3616.8340000000003
2023-03-17T22:45:02.307Z,4458.67
2023-03-17T22:50:02.360Z,4885.152
2023-03-17T22:55:02.363Z,4570.782
2023-03-17T23:00:02.498Z,2554.731
2023-03-17T23:05:02.505Z,5273.754
2023-03-17T23:10:02.634Z,5022.996
2023-03-17T23:15:02.398Z,4915.917
2023-03-17T23:20:02.324Z,5017.5960000000005
2023-03-17T23:25:02.395Z,4964.858
2023-03-17T23:30:02.397Z,4978.915
2023-03-17T23:35:02.433Z,5329.206
2023-03-17T23:40:02.393Z,5353.011
2023-03-17T23:45:02.481Z,5369.723
2023-03-17T23:50:02.398Z,5353.455
2023-03-17T23:55:02.575Z,5040.7570000000005
